Time;durP1;ratioP1;P1;durP2;ratioP2;P2;SDS_P1;SDS_P2;PMS_P1;PMS_P2;Temp;Humidity;BMP_temperature;BMP_pressure;BME280_temperature;BME280_humidity;BME280_pressure;Samples;Min_cycle;Max_cycle;Signal;HPM_P1;HPM_P2
2023/09/18 00:01:28;;;;;;;2.88;2.15;;;;;;;;;;5056133;28;20029;-59
2023/09/18 00:03:54;;;;;;;2.95;2.05;;;;;;;;;;5056002;28;20066;-59
2023/09/18 00:06:23;;;;;;;2.97;2.05;;;;;;;;;;5056542;28;20032;-59
2023/09/18 00:08:51;;;;;;;3.88;1.80;;;;;;;;;;5055537;28;20033;-59
2023/09/18 00:11:16;;;;;;;2.53;1.88;;;;;;;;;;5055892;28;20056;-59
2023/09/18 00:13:42;;;;;;;3.67;2.38;;;;;;;;;;5055831;28;20114;-59
2023/09/18 00:16:08;;;;;;;4.93;2.15;;;;;;;;;;5056167;28;20056;-59
2023/09/18 00:18:34;;;;;;;2.92;2.03;;;;;;;;;;5055805;28;20475;-59
2023/09/18 00:21:00;;;;;;;2.88;2.28;;;;;;;;;;5056219;28;20025;-59
2023/09/18 00:23:26;;;;;;;4.13;1.92;;;;;;;;;;5055736;28;20028;-59
2023/09/18 00:25:52;;;;;;;3.75;2.42;;;;;;;;;;5055643;28;20032;-59
2023/09/18 00:28:18;;;;;;;3.53;2.00;;;;;;;;;;5055557;28;20021;-59
2023/09/18 00:30:48;;;;;;;6.88;2.20;;;;;;;;;;5055618;28;20025;-59
2023/09/18 00:33:14;;;;;;;2.72;2.13;;;;;;;;;;5056019;28;20419;-59
2023/09/18 00:35:40;;;;;;;3.47;2.40;;;;;;;;;;5054805;28;20088;-59
2023/09/18 00:38:07;;;;;;;4.15;2.38;;;;;;;;;;5055502;28;20476;-59
2023/09/18 00:40:33;;;;;;;3.90;2.15;;;;;;;;;;5055615;28;20509;-59
2023/09/18 00:42:59;;;;;;;2.85;2.10;;;;;;;;;;5055276;28;20122;-59
2023/09/18 00:45:25;;;;;;;2.83;1.77;;;;;;;;;;5054952;28;20033;-59
2023/09/18 00:47:51;;;;;;;3.90;1.98;;;;;;;;;;5055193;28;20477;-59
2023/09/18 00:50:17;;;;;;;3.10;2.15;;;;;;;;;;5055509;28;20504;-59
2023/09/18 00:52:43;;;;;;;2.85;2.00;;;;;;;;;;5055170;28;20482;-59
2023/09/18 00:55:09;;;;;;;3.33;2.50;;;;;;;;;;5055084;28;20037;-58
2023/09/18 00:57:35;;;;;;;3.30;2.22;;;;;;;;;;5054977;28;20163;-59
2023/09/18 01:00:03;;;;;;;3.05;2.38;;;;;;;;;;5055017;28;20462;-59
2023/09/18 01:02:29;;;;;;;2.38;1.65;;;;;;;;;;5054869;28;20033;-59
2023/09/18 01:04:56;;;;;;;2.88;1.75;;;;;;;;;;5054573;28;20086;-59
2023/09/18 01:07:22;;;;;;;2.38;1.77;;;;;;;;;;5054849;28;20413;-59
2023/09/18 01:09:48;;;;;;;3.38;2.38;;;;;;;;;;5055011;28;20021;-59
2023/09/18 01:12:17;;;;;;;2.53;1.98;;;;;;;;;;5054706;28;20028;-59
2023/09/18 01:14:45;;;;;;;3.33;1.80;;;;;;;;;;5054591;28;20031;-59
2023/09/18 01:17:13;;;;;;;2.88;1.60;;;;;;;;;;5054844;28;20345;-59
2023/09/18 01:19:41;;;;;;;2.80;2.25;;;;;;;;;;5054862;28;20036;-59
2023/09/18 01:22:07;;;;;;;3.22;2.33;;;;;;;;;;5055012;28;20056;-59
2023/09/18 01:24:34;;;;;;;3.20;2.10;;;;;;;;;;5055005;28;20032;-59
2023/09/18 01:27:00;;;;;;;2.70;1.95;;;;;;;;;;5054774;28;20387;-59
2023/09/18 01:29:26;;;;;;;4.68;2.08;;;;;;;;;;5054448;28;20017;-59
2023/09/18 01:31:52;;;;;;;2.53;1.92;;;;;;;;;;5054814;28;20028;-59
2023/09/18 01:34:20;;;;;;;2.78;1.80;;;;;;;;;;5054329;28;20032;-59
2023/09/18 01:36:46;;;;;;;3.47;2.10;;;;;;;;;;5055096;28;20057;-59
2023/09/18 01:39:13;;;;;;;3.45;1.85;;;;;;;;;;5054773;28;20108;-59
2023/09/18 01:41:39;;;;;;;2.55;1.70;;;;;;;;;;5054141;28;20021;-59
2023/09/18 01:44:05;;;;;;;2.60;1.92;;;;;;;;;;5053624;28;20437;-59
2023/09/18 01:46:32;;;;;;;3.00;2.05;;;;;;;;;;5053794;28;20051;-59
2023/09/18 01:48:59;;;;;;;2.42;1.55;;;;;;;;;;5054218;28;20048;-59
2023/09/18 01:51:25;;;;;;;2.90;2.28;;;;;;;;;;5053999;28;20100;-59
2023/09/18 01:53:51;;;;;;;4.18;1.80;;;;;;;;;;5053908;28;20423;-59
2023/09/18 01:56:17;;;;;;;3.38;2.00;;;;;;;;;;5053896;28;20426;-59
2023/09/18 01:58:43;;;;;;;3.28;2.00;;;;;;;;;;5053849;28;20029;-59
2023/09/18 02:01:09;;;;;;;4.03;2.00;;;;;;;;;;5054459;28;20025;-59
2023/09/18 02:03:34;;;;;;;2.92;1.77;;;;;;;;;;5054337;28;20019;-59
2023/09/18 02:06:00;;;;;;;4.25;1.92;;;;;;;;;;5054249;28;20033;-59
2023/09/18 02:08:26;;;;;;;3.75;1.63;;;;;;;;;;5053734;28;20029;-59
2023/09/18 02:10:52;;;;;;;4.65;1.60;;;;;;;;;;5054093;28;20028;-59
2023/09/18 02:13:18;;;;;;;9.23;1.95;;;;;;;;;;5053656;28;20021;-59
2023/09/18 02:15:44;;;;;;;2.88;1.63;;;;;;;;;;5054066;28;20029;-59
2023/09/18 02:18:10;;;;;;;5.72;2.53;;;;;;;;;;5053694;28;20025;-59
2023/09/18 02:20:41;;;;;;;3.33;1.40;;;;;;;;;;5053962;28;20380;-59
2023/09/18 02:23:07;;;;;;;4.45;2.00;;;;;;;;;;5053811;28;20091;-59
2023/09/18 02:25:33;;;;;;;7.45;2.25;;;;;;;;;;5053552;28;20398;-59
2023/09/18 02:27:59;;;;;;;4.75;1.77;;;;;;;;;;5053491;28;20028;-59
2023/09/18 02:30:25;;;;;;;2.60;1.70;;;;;;;;;;5053836;28;20032;-59
2023/09/18 02:32:51;;;;;;;8.15;2.10;;;;;;;;;;5053412;28;20033;-59
2023/09/18 02:35:17;;;;;;;2.47;1.30;;;;;;;;;;5053220;28;20479;-59
2023/09/18 02:37:42;;;;;;;6.60;2.17;;;;;;;;;;5053421;28;20462;-59
2023/09/18 02:40:09;;;;;;;3.55;1.65;;;;;;;;;;5054100;28;20477;-59
2023/09/18 02:42:35;;;;;;;2.78;1.63;;;;;;;;;;5053409;28;20061;-59
2023/09/18 02:45:01;;;;;;;5.90;2.03;;;;;;;;;;5053875;28;20028;-59
2023/09/18 02:47:27;;;;;;;7.65;1.92;;;;;;;;;;5053686;28;20438;-59
2023/09/18 02:49:52;;;;;;;4.07;1.42;;;;;;;;;;5053762;28;20032;-59
2023/09/18 02:52:18;;;;;;;2.10;1.17;;;;;;;;;;5053599;28;20025;-59
2023/09/18 02:54:44;;;;;;;3.22;1.52;;;;;;;;;;5053251;28;20028;-59
2023/09/18 02:57:10;;;;;;;3.03;1.35;;;;;;;;;;5055397;28;20096;-59
2023/09/18 02:59:36;;;;;;;2.10;1.42;;;;;;;;;;5058110;28;20359;-59
2023/09/18 03:02:02;;;;;;;3.00;1.75;;;;;;;;;;5057209;28;20021;-59
2023/09/18 03:04:30;;;;;;;5.35;1.63;;;;;;;;;;5057230;28;20039;-59
2023/09/18 03:06:56;;;;;;;6.22;1.98;;;;;;;;;;5057465;28;20103;-59
2023/09/18 03:09:22;;;;;;;2.40;1.17;;;;;;;;;;5057427;28;20060;-59
2023/09/18 03:11:49;;;;;;;3.67;1.00;;;;;;;;;;5057514;28;20408;-59
2023/09/18 03:14:14;;;;;;;2.95;1.48;;;;;;;;;;5057052;28;20060;-59
2023/09/18 03:16:40;;;;;;;4.57;2.08;;;;;;;;;;5057053;28;20079;-59
2023/09/18 03:19:06;;;;;;;3.58;1.33;;;;;;;;;;5057369;28;20033;-59
2023/09/18 03:21:35;;;;;;;7.78;2.05;;;;;;;;;;5057179;28;20037;-59
2023/09/18 03:24:01;;;;;;;5.30;1.85;;;;;;;;;;5056849;28;20033;-59
2023/09/18 03:26:27;;;;;;;4.22;2.03;;;;;;;;;;5056805;28;20056;-59
2023/09/18 03:28:53;;;;;;;6.93;1.55;;;;;;;;;;5056787;28;20028;-59
2023/09/18 03:31:19;;;;;;;2.97;1.38;;;;;;;;;;5056952;28;20021;-59
2023/09/18 03:33:46;;;;;;;2.85;1.40;;;;;;;;;;5057423;28;20351;-59
2023/09/18 03:36:13;;;;;;;6.13;1.70;;;;;;;;;;5056134;28;20364;-59
2023/09/18 03:38:39;;;;;;;1.67;1.02;;;;;;;;;;5056454;28;20459;-59
2023/09/18 03:41:05;;;;;;;6.57;2.15;;;;;;;;;;5057127;28;20036;-59
2023/09/18 03:43:31;;;;;;;2.83;1.58;;;;;;;;;;5056129;28;20025;-59
2023/09/18 03:46:15;;;;;;;8.18;1.95;;;;;;;;;;5056955;28;20033;-59
2023/09/18 03:48:41;;;;;;;2.63;1.30;;;;;;;;;;5056669;28;20040;-59
2023/09/18 03:51:12;;;;;;;4.50;1.85;;;;;;;;;;5056314;28;20358;-59
2023/09/18 03:53:38;;;;;;;10.95;1.75;;;;;;;;;;5056775;28;20025;-59
2023/09/18 03:56:04;;;;;;;2.67;1.17;;;;;;;;;;5056401;28;20037;-59
2023/09/18 03:58:30;;;;;;;3.65;1.55;;;;;;;;;;5056269;28;20024;-59
2023/09/18 04:00:56;;;;;;;3.90;1.42;;;;;;;;;;5056729;28;20052;-59
2023/09/18 04:03:22;;;;;;;5.50;1.60;;;;;;;;;;5056206;28;20094;-59
2023/09/18 04:05:48;;;;;;;5.03;1.65;;;;;;;;;;5055944;28;20029;-59
2023/09/18 04:08:14;;;;;;;2.90;1.58;;;;;;;;;;5055655;28;20063;-59
2023/09/18 04:10:40;;;;;;;4.85;1.70;;;;;;;;;;5056575;28;20343;-59
2023/09/18 04:13:06;;;;;;;2.95;1.10;;;;;;;;;;5055945;28;20052;-59
2023/09/18 04:15:32;;;;;;;6.65;1.70;;;;;;;;;;5055580;28;20083;-59
2023/09/18 04:17:58;;;;;;;5.13;1.35;;;;;;;;;;5055904;28;20354;-59
2023/09/18 04:20:24;;;;;;;4.05;1.70;;;;;;;;;;5056158;28;20347;-59
2023/09/18 04:23:10;;;;;;;4.60;1.73;;;;;;;;;;5056359;28;20033;-59
2023/09/18 04:25:36;;;;;;;2.83;1.42;;;;;;;;;;5055995;28;20032;-59
2023/09/18 04:28:02;;;;;;;3.03;1.20;;;;;;;;;;5055683;28;20025;-59
2023/09/18 04:30:28;;;;;;;2.85;1.65;;;;;;;;;;5056126;28;20108;-59
2023/09/18 04:32:54;;;;;;;3.03;1.42;;;;;;;;;;5055156;28;20119;-59
2023/09/18 04:35:20;;;;;;;5.47;1.67;;;;;;;;;;5055411;28;20433;-59
2023/09/18 04:37:46;;;;;;;4.75;1.77;;;;;;;;;;5055546;28;20028;-59
2023/09/18 04:40:12;;;;;;;3.30;1.35;;;;;;;;;;5055747;28;20424;-59
2023/09/18 04:42:39;;;;;;;4.03;1.65;;;;;;;;;;5055901;28;20027;-59
2023/09/18 04:45:05;;;;;;;5.00;1.25;;;;;;;;;;5055402;28;20352;-59
2023/09/18 04:47:31;;;;;;;3.20;1.52;;;;;;;;;;5055006;28;20352;-59
2023/09/18 04:49:57;;;;;;;6.20;1.40;;;;;;;;;;5055293;28;20024;-59
2023/09/18 04:52:23;;;;;;;1.90;1.13;;;;;;;;;;5054969;28;20543;-59
2023/09/18 04:54:49;;;;;;;4.80;1.50;;;;;;;;;;5054820;28;20108;-59
2023/09/18 04:57:15;;;;;;;2.70;1.40;;;;;;;;;;5055083;28;20021;-59
2023/09/18 04:59:41;;;;;;;2.55;1.38;;;;;;;;;;5055678;28;20471;-59
2023/09/18 05:02:07;;;;;;;4.20;1.83;;;;;;;;;;5055275;28;20478;-59
2023/09/18 05:04:33;;;;;;;6.80;2.00;;;;;;;;;;5055386;28;20119;-59
2023/09/18 05:07:01;;;;;;;3.45;2.03;;;;;;;;;;5055243;28;20104;-59
2023/09/18 05:09:27;;;;;;;3.65;1.83;;;;;;;;;;5055094;28;20036;-59
2023/09/18 05:11:53;;;;;;;3.40;1.80;;;;;;;;;;5055624;28;20442;-59
2023/09/18 05:14:19;;;;;;;8.57;1.83;;;;;;;;;;5054828;28;20021;-59
2023/09/18 05:16:45;;;;;;;4.40;2.25;;;;;;;;;;5055051;28;20079;-59
2023/09/18 05:19:12;;;;;;;3.05;1.50;;;;;;;;;;5054009;28;20025;-59
2023/09/18 05:21:37;;;;;;;4.90;1.90;;;;;;;;;;5054420;28;20064;-59
2023/09/18 05:24:05;;;;;;;3.22;1.48;;;;;;;;;;5054949;28;20056;-59
2023/09/18 05:26:31;;;;;;;3.40;1.80;;;;;;;;;;5054513;28;20072;-59
2023/09/18 05:28:57;;;;;;;3.30;1.50;;;;;;;;;;5054905;28;20116;-59
2023/09/18 05:31:24;;;;;;;4.93;2.08;;;;;;;;;;5053918;28;20463;-59
2023/09/18 05:33:50;;;;;;;1.80;1.10;;;;;;;;;;5054316;28;20021;-60
2023/09/18 05:36:16;;;;;;;6.93;2.00;;;;;;;;;;5055115;28;20102;-59
2023/09/18 05:38:46;;;;;;;2.72;1.60;;;;;;;;;;5054316;28;20064;-59
2023/09/18 05:41:12;;;;;;;2.85;1.48;;;;;;;;;;5054314;28;20044;-59
2023/09/18 05:43:37;;;;;;;3.05;2.03;;;;;;;;;;5054195;28;20068;-59
2023/09/18 05:46:05;;;;;;;5.57;2.42;;;;;;;;;;5054131;28;20032;-59
2023/09/18 05:48:31;;;;;;;1.98;1.38;;;;;;;;;;5054699;28;20066;-59
2023/09/18 05:50:57;;;;;;;3.10;1.92;;;;;;;;;;5054554;28;20430;-59
2023/09/18 05:53:23;;;;;;;6.03;2.10;;;;;;;;;;5053039;28;20035;-59
2023/09/18 05:55:49;;;;;;;5.03;2.30;;;;;;;;;;5053290;28;20344;-59
2023/09/18 05:58:17;;;;;;;3.88;1.67;;;;;;;;;;5053936;28;20040;-59
2023/09/18 06:00:43;;;;;;;2.10;1.40;;;;;;;;;;5054518;28;20075;-59
2023/09/18 06:03:12;;;;;;;2.67;1.60;;;;;;;;;;5053717;28;20029;-59
2023/09/18 06:05:38;;;;;;;3.45;1.75;;;;;;;;;;5054341;28;20033;-59
2023/09/18 06:08:04;;;;;;;3.00;2.03;;;;;;;;;;5053750;28;20032;-59
2023/09/18 06:10:30;;;;;;;6.90;1.17;;;;;;;;;;5053675;28;20105;-59
2023/09/18 06:12:56;;;;;;;2.90;1.65;;;;;;;;;;5053275;28;20036;-59
2023/09/18 06:15:22;;;;;;;5.93;1.70;;;;;;;;;;5054120;28;20029;-59
2023/09/18 06:17:48;;;;;;;2.50;1.58;;;;;;;;;;5054187;28;20043;-59
2023/09/18 06:20:15;;;;;;;4.07;1.92;;;;;;;;;;5053962;28;20029;-59
2023/09/18 06:22:41;;;;;;;3.22;1.58;;;;;;;;;;5053405;28;20128;-59
2023/09/18 06:25:09;;;;;;;4.95;2.17;;;;;;;;;;5054108;28;20080;-59
2023/09/18 06:27:36;;;;;;;4.82;1.92;;;;;;;;;;5053437;28;20028;-59
2023/09/18 06:30:02;;;;;;;4.63;2.08;;;;;;;;;;5053706;28;20577;-59
2023/09/18 06:32:28;;;;;;;3.90;1.85;;;;;;;;;;5052978;28;20025;-59
2023/09/18 06:34:54;;;;;;;4.28;1.80;;;;;;;;;;5053782;28;20079;-59
2023/09/18 06:37:20;;;;;;;9.18;1.85;;;;;;;;;;5054248;28;20451;-60
2023/09/18 06:39:46;;;;;;;3.00;1.58;;;;;;;;;;5053928;28;20025;-60
2023/09/18 06:42:12;;;;;;;5.53;2.03;;;;;;;;;;5053826;28;20336;-60
2023/09/18 06:44:38;;;;;;;4.85;1.73;;;;;;;;;;5053030;28;20409;-60
2023/09/18 06:47:04;;;;;;;2.42;1.40;;;;;;;;;;5053392;28;20036;-60
2023/09/18 06:49:30;;;;;;;5.70;1.15;;;;;;;;;;5053961;28;20029;-60
2023/09/18 06:51:56;;;;;;;1.70;1.23;;;;;;;;;;5053825;28;20336;-60
2023/09/18 06:54:22;;;;;;;4.38;1.63;;;;;;;;;;5053323;28;20021;-60
2023/09/18 06:56:48;;;;;;;9.23;2.35;;;;;;;;;;5054003;28;20355;-60
2023/09/18 06:59:14;;;;;;;4.47;1.60;;;;;;;;;;5053607;28;20037;-60
2023/09/18 07:01:42;;;;;;;4.22;1.80;;;;;;;;;;5053094;28;20028;-60
2023/09/18 07:04:08;;;;;;;4.75;2.13;;;;;;;;;;5052791;28;20029;-60
2023/09/18 07:06:34;;;;;;;3.15;1.63;;;;;;;;;;5053176;28;20497;-60
2023/09/18 07:09:00;;;;;;;2.47;1.10;;;;;;;;;;5053655;28;20116;-60
2023/09/18 07:11:26;;;;;;;3.53;1.42;;;;;;;;;;5053134;28;20371;-60
2023/09/18 07:13:52;;;;;;;5.38;1.75;;;;;;;;;;5052623;28;20021;-60
2023/09/18 07:16:18;;;;;;;3.42;1.40;;;;;;;;;;5053612;28;20131;-60
2023/09/18 07:18:44;;;;;;;2.67;1.40;;;;;;;;;;5053835;28;20025;-60
2023/09/18 07:21:10;;;;;;;2.72;1.42;;;;;;;;;;5053458;28;20028;-60
2023/09/18 07:23:37;;;;;;;3.92;1.35;;;;;;;;;;5053821;28;20355;-60
2023/09/18 07:26:03;;;;;;;4.80;1.20;;;;;;;;;;5052750;28;20028;-60
2023/09/18 07:28:29;;;;;;;2.28;1.02;;;;;;;;;;5052976;28;20021;-60
2023/09/18 07:30:55;;;;;;;3.88;1.77;;;;;;;;;;5053562;28;20057;-60
2023/09/18 07:33:21;;;;;;;2.03;0.77;;;;;;;;;;5052973;28;20025;-59
2023/09/18 07:35:53;;;;;;;2.80;1.23;;;;;;;;;;5052962;28;20049;-60
2023/09/18 07:38:19;;;;;;;1.92;0.95;;;;;;;;;;5052644;28;20363;-60
2023/09/18 07:40:46;;;;;;;2.78;0.82;;;;;;;;;;5052971;28;20112;-60
2023/09/18 07:43:12;;;;;;;3.03;1.00;;;;;;;;;;5054132;28;20028;-60
2023/09/18 07:45:41;;;;;;;1.90;0.80;;;;;;;;;;5056415;28;20029;-60
2023/09/18 07:48:08;;;;;;;4.30;1.02;;;;;;;;;;5056339;28;20135;-60
2023/09/18 07:50:34;;;;;;;3.40;1.00;;;;;;;;;;5056832;28;20028;-60
2023/09/18 07:53:01;;;;;;;0.82;0.40;;;;;;;;;;5056365;28;20048;-59
2023/09/18 07:55:27;;;;;;;2.40;1.20;;;;;;;;;;5055915;28;20044;-59
2023/09/18 07:57:53;;;;;;;2.83;0.85;;;;;;;;;;5056472;28;20439;-60
2023/09/18 08:00:22;;;;;;;1.58;0.60;;;;;;;;;;5056795;28;20021;-59
2023/09/18 08:02:49;;;;;;;2.08;0.75;;;;;;;;;;5056132;28;20413;-59
2023/09/18 08:05:15;;;;;;;1.75;0.70;;;;;;;;;;5056128;28;20037;-60
2023/09/18 08:07:41;;;;;;;1.50;0.60;;;;;;;;;;5056087;28;20082;-60
2023/09/18 08:10:08;;;;;;;0.93;0.57;;;;;;;;;;5056697;28;20390;-59
2023/09/18 08:12:34;;;;;;;2.00;0.85;;;;;;;;;;5055638;28;20083;-60
2023/09/18 08:15:01;;;;;;;3.83;1.17;;;;;;;;;;5056009;28;20021;-60
2023/09/18 08:17:27;;;;;;;0.60;0.30;;;;;;;;;;5055886;28;20415;-60
2023/09/18 08:19:54;;;;;;;3.92;0.57;;;;;;;;;;5056612;28;20067;-59
2023/09/18 08:22:21;;;;;;;1.42;0.38;;;;;;;;;;5056362;28;20087;-60
2023/09/18 08:24:52;;;;;;;2.08;0.60;;;;;;;;;;5056270;28;20118;-59
2023/09/18 08:27:18;;;;;;;2.88;0.47;;;;;;;;;;5055808;28;20040;-60
2023/09/18 08:29:47;;;;;;;1.05;0.47;;;;;;;;;;5055436;28;20056;-60
2023/09/18 08:32:13;;;;;;;2.17;0.68;;;;;;;;;;5055582;28;20025;-59
2023/09/18 08:34:39;;;;;;;2.00;0.73;;;;;;;;;;5055039;28;20028;-60
2023/09/18 08:37:05;;;;;;;1.30;0.55;;;;;;;;;;5056096;28;20447;-58
2023/09/18 08:39:36;;;;;;;2.92;0.68;;;;;;;;;;5056372;28;20027;-59
2023/09/18 08:42:06;;;;;;;2.72;0.57;;;;;;;;;;5055497;28;20028;-59
2023/09/18 08:44:32;;;;;;;1.13;0.52;;;;;;;;;;5055667;28;20017;-59
2023/09/18 08:46:58;;;;;;;1.92;0.95;;;;;;;;;;5056129;28;20104;-58
2023/09/18 08:49:24;;;;;;;1.33;0.52;;;;;;;;;;5055748;28;20021;-58
2023/09/18 08:51:54;;;;;;;1.90;0.75;;;;;;;;;;5055119;28;20070;-59
2023/09/18 08:54:21;;;;;;;1.00;0.57;;;;;;;;;;5055068;28;20112;-58
2023/09/18 08:56:47;;;;;;;1.10;0.50;;;;;;;;;;5055035;28;20055;-59
2023/09/18 08:59:13;;;;;;;1.30;0.50;;;;;;;;;;5055708;28;20111;-59
2023/09/18 09:01:39;;;;;;;3.40;0.63;;;;;;;;;;5055068;28;20098;-59
2023/09/18 09:04:05;;;;;;;0.57;0.35;;;;;;;;;;5055601;28;20371;-58
2023/09/18 09:06:31;;;;;;;1.90;0.70;;;;;;;;;;5054681;28;20360;-59
2023/09/18 09:08:59;;;;;;;1.23;0.60;;;;;;;;;;5054850;28;20017;-59
2023/09/18 09:11:24;;;;;;;1.50;0.60;;;;;;;;;;5055583;28;20108;-59
2023/09/18 09:14:11;;;;;;;1.35;0.43;;;;;;;;;;5054778;28;20064;-59
2023/09/18 09:16:40;;;;;;;2.05;1.00;;;;;;;;;;5055117;28;20130;-58
2023/09/18 09:19:06;;;;;;;1.20;0.40;;;;;;;;;;5054724;28;20029;-59
2023/09/18 09:21:43;;;;;;;3.03;0.60;;;;;;;;;;5054737;28;20025;-59
2023/09/18 09:24:13;;;;;;;2.00;1.00;;;;;;;;;;5054671;28;20489;-59
2023/09/18 09:26:39;;;;;;;1.30;0.73;;;;;;;;;;5055139;28;20036;-59
2023/09/18 09:29:17;;;;;;;2.10;0.63;;;;;;;;;;5055104;28;20033;-58
2023/09/18 09:31:43;;;;;;;0.80;0.40;;;;;;;;;;5054504;28;20036;-59
2023/09/18 09:34:09;;;;;;;1.38;0.63;;;;;;;;;;5054748;28;20447;-59
2023/09/18 09:36:35;;;;;;;1.30;0.60;;;;;;;;;;5054745;28;20473;-59
2023/09/18 09:39:04;;;;;;;1.20;0.50;;;;;;;;;;5054294;28;20021;-59
2023/09/18 09:41:33;;;;;;;1.95;0.60;;;;;;;;;;5054315;28;20028;-59
2023/09/18 09:43:59;;;;;;;2.92;0.95;;;;;;;;;;5054444;28;20455;-58
2023/09/18 09:46:25;;;;;;;2.58;0.88;;;;;;;;;;5054444;28;20078;-59
2023/09/18 09:49:01;;;;;;;5.75;1.25;;;;;;;;;;5054039;28;20024;-59
2023/09/18 09:51:28;;;;;;;1.30;0.70;;;;;;;;;;5053818;28;20063;-59
2023/09/18 09:53:54;;;;;;;4.05;0.95;;;;;;;;;;5054563;28;20029;-59
2023/09/18 09:56:22;;;;;;;2.22;0.73;;;;;;;;;;5053972;28;20032;-59
2023/09/18 09:59:05;;;;;;;1.33;0.65;;;;;;;;;;5054765;28;20021;-59
2023/09/18 10:01:32;;;;;;;1.67;0.77;;;;;;;;;;5054559;28;20103;-59
2023/09/18 10:04:00;;;;;;;2.25;1.17;;;;;;;;;;5054662;28;20025;-59
2023/09/18 10:06:29;;;;;;;1.83;1.02;;;;;;;;;;5053336;28;20462;-59
2023/09/18 10:08:56;;;;;;;1.48;0.80;;;;;;;;;;5053740;28;20033;-59
2023/09/18 10:11:22;;;;;;;1.83;0.73;;;;;;;;;;5054145;28;20025;-59
2023/09/18 10:13:56;;;;;;;2.03;1.10;;;;;;;;;;5053654;28;20119;-59
2023/09/18 10:16:27;;;;;;;1.85;1.02;;;;;;;;;;5053896;28;20040;-59
2023/09/18 10:19:02;;;;;;;1.48;0.70;;;;;;;;;;5054556;28;20090;-59
2023/09/18 10:21:34;;;;;;;2.80;0.80;;;;;;;;;;5054173;28;20028;-60
2023/09/18 10:24:03;;;;;;;1.60;0.80;;;;;;;;;;5054492;28;20170;-60
2023/09/18 10:26:33;;;;;;;2.05;0.88;;;;;;;;;;5054133;28;20021;-60
2023/09/18 10:29:02;;;;;;;2.17;0.88;;;;;;;;;;5054324;28;20025;-60
2023/09/18 10:31:31;;;;;;;3.53;1.10;;;;;;;;;;5054389;28;20028;-60
2023/09/18 10:33:59;;;;;;;1.10;0.68;;;;;;;;;;5053602;28;20021;-60
2023/09/18 10:36:26;;;;;;;1.45;0.75;;;;;;;;;;5052745;28;20052;-60
2023/09/18 10:38:53;;;;;;;1.50;0.80;;;;;;;;;;5053468;28;20032;-60
2023/09/18 10:41:21;;;;;;;3.03;0.98;;;;;;;;;;5054081;28;20029;-60
2023/09/18 10:43:49;;;;;;;2.55;0.75;;;;;;;;;;5053766;28;20102;-60
2023/09/18 10:46:15;;;;;;;3.38;0.85;;;;;;;;;;5053524;28;20054;-60
2023/09/18 10:48:42;;;;;;;1.30;0.63;;;;;;;;;;5053329;28;20383;-60
2023/09/18 10:51:08;;;;;;;1.77;0.88;;;;;;;;;;5054094;28;20029;-60
2023/09/18 10:53:34;;;;;;;1.40;0.50;;;;;;;;;;5053807;28;20367;-60
2023/09/18 10:56:04;;;;;;;1.65;0.75;;;;;;;;;;5053775;28;20029;-60
2023/09/18 10:58:30;;;;;;;1.23;0.63;;;;;;;;;;5053541;28;20021;-60
2023/09/18 11:00:57;;;;;;;1.23;0.63;;;;;;;;;;5054148;28;20029;-60
2023/09/18 11:03:23;;;;;;;0.85;0.30;;;;;;;;;;5053293;28;20025;-60
2023/09/18 11:06:02;;;;;;;1.83;0.82;;;;;;;;;;5054064;28;20112;-60
2023/09/18 11:08:33;;;;;;;1.50;0.80;;;;;;;;;;5054070;28;20021;-60
2023/09/18 11:11:04;;;;;;;1.55;0.50;;;;;;;;;;5053685;28;20025;-60
2023/09/18 11:13:30;;;;;;;1.75;0.52;;;;;;;;;;5052317;28;20133;-60
2023/09/18 11:16:00;;;;;;;1.88;0.80;;;;;;;;;;5053064;28;20056;-60
2023/09/18 11:18:33;;;;;;;1.88;0.70;;;;;;;;;;5054888;28;20021;-60
2023/09/18 11:21:09;;;;;;;0.77;0.47;;;;;;;;;;5057634;28;20032;-60
2023/09/18 11:23:36;;;;;;;0.57;0.28;;;;;;;;;;5057646;28;20027;-60
2023/09/18 11:26:07;;;;;;;1.48;0.70;;;;;;;;;;5057475;28;20025;-60
2023/09/18 11:28:33;;;;;;;1.20;0.60;;;;;;;;;;5057373;28;20032;-60
2023/09/18 11:31:00;;;;;;;4.18;0.70;;;;;;;;;;5057578;28;20027;-60
2023/09/18 11:33:35;;;;;;;2.58;1.00;;;;;;;;;;5056670;28;20501;-58
2023/09/18 11:36:06;;;;;;;1.95;1.00;;;;;;;;;;5057182;28;20075;-60
2023/09/18 11:38:33;;;;;;;1.65;0.75;;;;;;;;;;5056664;28;20039;-61
2023/09/18 11:41:02;;;;;;;2.80;0.68;;;;;;;;;;5057435;28;20029;-61
2023/09/18 11:43:35;;;;;;;2.08;0.50;;;;;;;;;;5056508;28;20108;-58
2023/09/18 11:46:05;;;;;;;1.55;0.60;;;;;;;;;;5056531;28;20036;-58
2023/09/18 11:48:33;;;;;;;1.73;0.70;;;;;;;;;;5056567;28;20025;-58
2023/09/18 11:51:03;;;;;;;1.52;0.82;;;;;;;;;;5057029;28;20132;-58
2023/09/18 11:53:29;;;;;;;1.45;0.55;;;;;;;;;;5057100;28;20025;-58
2023/09/18 11:55:55;;;;;;;1.80;0.68;;;;;;;;;;5056069;28;20079;-58
2023/09/18 11:58:23;;;;;;;2.38;0.85;;;;;;;;;;5056457;28;20021;-58
2023/09/18 12:00:49;;;;;;;1.40;0.70;;;;;;;;;;5056231;28;20539;-58
2023/09/18 12:03:25;;;;;;;2.35;0.80;;;;;;;;;;5056600;28;20036;-58
2023/09/18 12:06:01;;;;;;;1.00;0.40;;;;;;;;;;5056635;28;20036;-59
2023/09/18 12:08:27;;;;;;;0.73;0.38;;;;;;;;;;5056543;28;20336;-58
2023/09/18 12:10:54;;;;;;;0.73;0.47;;;;;;;;;;5056459;28;20024;-58
2023/09/18 12:13:20;;;;;;;2.25;0.90;;;;;;;;;;5056595;28;20098;-58
2023/09/18 12:15:47;;;;;;;1.13;0.45;;;;;;;;;;5056322;28;20033;-58
2023/09/18 12:18:14;;;;;;;1.98;0.63;;;;;;;;;;5056402;28;20021;-58
2023/09/18 12:20:51;;;;;;;1.70;0.80;;;;;;;;;;5056391;28;20044;-59
2023/09/18 12:23:19;;;;;;;3.00;0.70;;;;;;;;;;5056337;28;20116;-59
2023/09/18 12:25:47;;;;;;;1.42;0.85;;;;;;;;;;5055729;28;20029;-59
2023/09/18 12:28:15;;;;;;;1.27;0.60;;;;;;;;;;5055606;28;20048;-59
2023/09/18 12:30:41;;;;;;;1.15;0.68;;;;;;;;;;5056054;28;20029;-59
2023/09/18 12:33:07;;;;;;;2.15;1.02;;;;;;;;;;5055266;28;20116;-59
2023/09/18 12:35:33;;;;;;;1.83;0.63;;;;;;;;;;5055346;28;20143;-59
2023/09/18 12:38:04;;;;;;;2.58;0.93;;;;;;;;;;5055169;28;20112;-59
2023/09/18 12:40:32;;;;;;;1.83;0.80;;;;;;;;;;5055473;28;20071;-59
2023/09/18 12:42:59;;;;;;;1.35;0.73;;;;;;;;;;5055342;28;20021;-59
2023/09/18 12:45:25;;;;;;;4.28;0.93;;;;;;;;;;5055437;28;20526;-59
2023/09/18 12:47:52;;;;;;;2.25;0.80;;;;;;;;;;5055896;28;20025;-59
2023/09/18 12:50:18;;;;;;;1.27;0.57;;;;;;;;;;5055269;28;20017;-59
2023/09/18 12:52:44;;;;;;;1.55;0.77;;;;;;;;;;5055172;28;20363;-59
2023/09/18 12:55:26;;;;;;;2.17;0.95;;;;;;;;;;5055545;28;20044;-59
2023/09/18 12:57:53;;;;;;;2.13;1.00;;;;;;;;;;5054630;28;20032;-59
2023/09/18 13:00:22;;;;;;;1.85;0.82;;;;;;;;;;5054610;28;20070;-59
2023/09/18 13:02:51;;;;;;;4.18;3.63;;;;;;;;;;5053857;28;20498;-59
2023/09/18 13:05:19;;;;;;;2.75;1.52;;;;;;;;;;5054946;28;20024;-59
2023/09/18 13:07:45;;;;;;;1.73;0.80;;;;;;;;;;5054685;28;20536;-59
2023/09/18 13:10:13;;;;;;;1.60;0.60;;;;;;;;;;5055508;28;20021;-59
2023/09/18 13:12:39;;;;;;;4.45;0.98;;;;;;;;;;5055272;28;20025;-59
2023/09/18 13:15:08;;;;;;;2.08;0.85;;;;;;;;;;5054892;28;20067;-59
2023/09/18 13:17:44;;;;;;;2.60;0.93;;;;;;;;;;5055546;28;20028;-59
2023/09/18 13:20:12;;;;;;;0.88;0.47;;;;;;;;;;5055351;28;20417;-59
2023/09/18 13:22:39;;;;;;;1.48;0.65;;;;;;;;;;5055484;28;20021;-59
2023/09/18 13:25:07;;;;;;;1.83;0.65;;;;;;;;;;5054691;28;20045;-59
2023/09/18 13:27:33;;;;;;;1.77;0.65;;;;;;;;;;5055346;28;20112;-59
2023/09/18 13:30:06;;;;;;;1.10;0.50;;;;;;;;;;5054685;28;20048;-59
2023/09/18 13:32:32;;;;;;;3.10;0.90;;;;;;;;;;5055077;28;20025;-59
2023/09/18 13:34:58;;;;;;;2.05;0.65;;;;;;;;;;5054533;28;20576;-59
2023/09/18 13:37:24;;;;;;;2.10;0.60;;;;;;;;;;5054963;28;20037;-59
2023/09/18 13:39:50;;;;;;;2.95;1.05;;;;;;;;;;5054519;28;20025;-59
2023/09/18 13:42:16;;;;;;;0.98;0.50;;;;;;;;;;5053868;28;20067;-59
2023/09/18 13:44:42;;;;;;;1.30;0.60;;;;;;;;;;5054273;28;20447;-59
2023/09/18 13:47:08;;;;;;;1.50;0.60;;;;;;;;;;5054718;28;20071;-59
2023/09/18 13:49:34;;;;;;;1.13;0.55;;;;;;;;;;5053833;28;20013;-59
2023/09/18 13:52:00;;;;;;;1.70;0.65;;;;;;;;;;5053793;28;20025;-59
2023/09/18 13:54:26;;;;;;;2.33;0.77;;;;;;;;;;5053803;28;20374;-59
2023/09/18 13:56:55;;;;;;;1.83;0.55;;;;;;;;;;5053637;28;20025;-59
2023/09/18 13:59:21;;;;;;;0.98;0.50;;;;;;;;;;5054592;28;20033;-59
2023/09/18 14:01:47;;;;;;;1.45;0.60;;;;;;;;;;5053777;28;20028;-59
2023/09/18 14:04:13;;;;;;;1.35;0.60;;;;;;;;;;5053794;28;20044;-59
2023/09/18 14:06:39;;;;;;;1.40;0.50;;;;;;;;;;5053918;28;20028;-59
2023/09/18 14:09:05;;;;;;;1.75;0.68;;;;;;;;;;5054322;28;20017;-59
2023/09/18 14:11:31;;;;;;;1.65;0.70;;;;;;;;;;5053864;28;20029;-59
2023/09/18 14:13:57;;;;;;;1.80;0.60;;;;;;;;;;5053977;28;20013;-59
2023/09/18 14:16:24;;;;;;;1.23;0.70;;;;;;;;;;5054475;28;20033;-59
2023/09/18 14:18:52;;;;;;;2.05;0.70;;;;;;;;;;5053720;28;20078;-59
2023/09/18 14:21:18;;;;;;;1.50;0.68;;;;;;;;;;5054109;28;20405;-59
2023/09/18 14:23:44;;;;;;;1.35;0.65;;;;;;;;;;5053378;28;20021;-59
2023/09/18 14:26:10;;;;;;;2.75;0.68;;;;;;;;;;5053181;28;20108;-59
2023/09/18 14:28:36;;;;;;;1.05;0.52;;;;;;;;;;5052999;28;20021;-59
2023/09/18 14:31:03;;;;;;;1.70;0.82;;;;;;;;;;5052961;28;20013;-59
2023/09/18 14:33:29;;;;;;;2.58;0.80;;;;;;;;;;5052181;28;20400;-60
2023/09/18 14:35:55;;;;;;;2.75;1.10;;;;;;;;;;5052267;28;20049;-59
2023/09/18 14:38:21;;;;;;;1.13;0.40;;;;;;;;;;5053319;28;20013;-59
2023/09/18 14:40:47;;;;;;;1.08;0.57;;;;;;;;;;5053833;28;20033;-59
2023/09/18 14:43:13;;;;;;;2.10;0.77;;;;;;;;;;5053462;28;20018;-59